Time;durP1;ratioP1;P1;durP2;ratioP2;P2;SDS_P1;SDS_P2;PMS_P1;PMS_P2;Temp;Humidity;BMP_temperature;BMP_pressure;BME280_temperature;BME280_humidity;BME280_pressure;Samples;Min_cycle;Max_cycle;Signal;HPM_P1;HPM_P2
2024/01/20 09:45:38;;;;;;;5.17;2.47;;;-0.20;99.90;;;;;;3967819;23;20233;-73
2024/01/20 09:48:05;;;;;;;4.60;2.17;;;-0.10;99.90;;;;;;4915311;29;20561;-73
2024/01/20 09:50:32;;;;;;;2.70;1.13;;;-0.10;99.90;;;;;;4918184;29;20205;-73
2024/01/20 09:53:08;;;;;;;2.93;1.50;;;-0.10;99.90;;;;;;4917901;29;20236;-73
2024/01/20 09:55:35;;;;;;;6.20;2.57;;;0.00;99.90;;;;;;4917932;29;20323;-72
2024/01/20 09:58:04;;;;;;;5.23;2.67;;;0.10;99.90;;;;;;4917737;29;20677;-72
2024/01/20 10:00:32;;;;;;;5.33;1.73;;;0.20;99.90;;;;;;4917791;29;20751;-72
2024/01/20 10:03:03;;;;;;;6.47;2.70;;;0.50;99.90;;;;;;4917157;29;20308;-74
2024/01/20 10:05:31;;;;;;;4.77;2.03;;;0.70;99.90;;;;;;4917789;29;20293;-73
2024/01/20 10:07:58;;;;;;;9.53;2.97;;;0.90;99.90;;;;;;4917561;29;20637;-73
2024/01/20 10:10:25;;;;;;;5.03;2.30;;;1.10;99.90;;;;;;4918145;29;20216;-73
2024/01/20 10:12:53;;;;;;;6.33;3.00;;;1.20;99.90;;;;;;4917505;29;20247;-76
2024/01/20 10:15:22;;;;;;;7.47;2.70;;;1.30;99.90;;;;;;4916638;29;20237;-73
2024/01/20 10:17:50;;;;;;;6.80;2.53;;;1.40;99.90;;;;;;4917159;29;20609;-73
2024/01/20 10:20:21;;;;;;;5.73;2.37;;;1.20;99.90;;;;;;4917555;29;20631;-73
2024/01/20 10:22:48;;;;;;;6.03;2.37;;;1.10;99.90;;;;;;4917284;29;20312;-73
2024/01/20 10:25:19;;;;;;;7.23;2.30;;;1.00;99.90;;;;;;4912758;29;20224;-72
2024/01/20 10:27:45;;;;;;;6.97;2.00;;;0.90;99.90;;;;;;4915970;29;20216;-73
2024/01/20 10:30:13;;;;;;;4.60;2.33;;;0.80;99.90;;;;;;4916225;29;20231;-72
2024/01/20 10:32:41;;;;;;;5.60;2.23;;;0.70;99.90;;;;;;4915716;29;20281;-75
2024/01/20 10:35:09;;;;;;;5.33;2.03;;;0.70;99.90;;;;;;4915740;29;20209;-73
2024/01/20 10:37:40;;;;;;;5.17;2.63;;;0.80;99.90;;;;;;4916032;29;20206;-70
2024/01/20 10:40:11;;;;;;;3.90;1.43;;;0.80;99.90;;;;;;4916621;29;20273;-76
2024/01/20 10:42:44;;;;;;;10.03;2.77;;;0.50;99.90;;;;;;4920161;29;20229;-70
2024/01/20 10:45:16;;;;;;;4.00;1.50;;;0.50;99.90;;;;;;4915186;29;20222;-72
2024/01/20 10:47:50;;;;;;;3.93;2.33;;;0.50;99.90;;;;;;4915653;29;20300;-72
2024/01/20 10:50:21;;;;;;;4.37;2.10;;;0.40;99.90;;;;;;4915471;29;20540;-72
2024/01/20 10:52:48;;;;;;;6.57;2.30;;;0.50;99.90;;;;;;4915105;29;20771;-72
2024/01/20 10:55:16;;;;;;;2.90;1.70;;;0.50;99.90;;;;;;4914873;29;20213;-73
2024/01/20 10:57:43;;;;;;;7.47;1.83;;;0.70;99.90;;;;;;4915319;29;20265;-75
2024/01/20 11:00:11;;;;;;;5.00;2.30;;;0.70;99.90;;;;;;4915713;29;20233;-73
2024/01/20 11:02:39;;;;;;;5.63;2.00;;;0.50;99.90;;;;;;4915027;29;20316;-72
2024/01/20 11:05:19;;;;;;;18.40;3.57;;;0.50;99.90;;;;;;4915152;29;20315;-73
2024/01/20 11:08:05;;;;;;;10.77;2.73;;;0.50;99.90;;;;;;5088132;28;20557;-74
2024/01/20 11:10:39;;;;;;;5.40;1.93;;;0.50;99.90;;;;;;5088460;28;20572;-77
2024/01/20 11:13:07;;;;;;;2.97;1.23;;;0.50;99.90;;;;;;5074685;28;20226;-76
2024/01/20 11:15:34;;;;;;;5.37;2.33;;;0.60;99.90;;;;;;5068405;28;20206;-76
2024/01/20 11:18:02;;;;;;;3.20;1.90;;;0.70;99.90;;;;;;5067655;28;20253;-73
2024/01/20 11:20:30;;;;;;;4.87;2.20;;;0.80;99.90;;;;;;5067071;28;20277;-73
2024/01/20 11:22:57;;;;;;;7.07;1.80;;;0.70;99.90;;;;;;5067500;28;20223;-75
2024/01/20 11:25:32;;;;;;;5.77;2.10;;;0.70;99.90;;;;;;5068188;28;20405;-75
2024/01/20 11:27:59;;;;;;;2.70;1.33;;;0.80;99.90;;;;;;5067496;28;20265;-74
2024/01/20 11:30:27;;;;;;;3.90;2.20;;;1.00;99.90;;;;;;5065337;28;20212;-72
2024/01/20 11:32:54;;;;;;;4.87;1.70;;;1.10;99.90;;;;;;5066720;28;20669;-72
2024/01/20 11:35:21;;;;;;;5.97;2.10;;;1.10;99.90;;;;;;5069092;28;20309;-71
2024/01/20 11:37:49;;;;;;;6.20;1.90;;;1.30;99.90;;;;;;5069090;28;20730;-71
2024/01/20 11:40:15;;;;;;;4.50;1.87;;;1.40;99.90;;;;;;5068868;28;20206;-72
2024/01/20 11:42:44;;;;;;;4.50;1.87;;;1.50;99.90;;;;;;5069038;28;20224;-72
2024/01/20 11:45:11;;;;;;;5.53;1.83;;;1.70;99.90;;;;;;5069143;28;20314;-71
2024/01/20 11:47:38;;;;;;;5.17;2.07;;;1.80;99.90;;;;;;5068824;28;20223;-72
2024/01/20 11:50:06;;;;;;;4.47;2.03;;;2.00;99.90;;;;;;5068992;28;20221;-72
2024/01/20 11:52:33;;;;;;;5.37;2.20;;;2.10;99.90;;;;;;5068653;28;20655;-71
2024/01/20 11:55:00;;;;;;;4.93;2.27;;;2.10;99.90;;;;;;5068957;28;20203;-71
2024/01/20 11:57:29;;;;;;;6.27;2.27;;;2.30;99.90;;;;;;5068620;28;20210;-72
2024/01/20 11:59:58;;;;;;;8.07;2.33;;;2.10;99.90;;;;;;5068824;28;20258;-72
2024/01/20 12:02:27;;;;;;;6.03;2.70;;;2.20;99.90;;;;;;5067993;28;20648;-72
2024/01/20 12:04:54;;;;;;;5.37;1.80;;;2.30;99.90;;;;;;5068594;28;20203;-72
2024/01/20 12:07:21;;;;;;;5.40;2.57;;;2.50;99.90;;;;;;5068184;28;20318;-72
2024/01/20 12:09:48;;;;;;;4.73;2.70;;;2.50;99.90;;;;;;5068560;28;20306;-72
2024/01/20 12:12:16;;;;;;;4.17;1.93;;;2.50;99.90;;;;;;5067615;28;20701;-72
2024/01/20 12:14:44;;;;;;;4.43;2.00;;;2.40;99.90;;;;;;5048077;28;20208;-72
2024/01/20 12:17:12;;;;;;;8.83;2.33;;;2.40;99.90;;;;;;5055276;28;20277;-72
2024/01/20 12:19:41;;;;;;;6.77;2.10;;;2.40;99.90;;;;;;5054819;28;20208;-72
2024/01/20 12:22:09;;;;;;;7.40;2.27;;;2.40;99.90;;;;;;5055384;28;20307;-72
2024/01/20 12:24:36;;;;;;;3.30;1.70;;;2.40;99.90;;;;;;5055133;28;20208;-72
2024/01/20 12:27:04;;;;;;;4.60;2.47;;;2.40;99.90;;;;;;5054972;28;20224;-71
2024/01/20 12:29:31;;;;;;;5.27;2.00;;;2.40;99.90;;;;;;5054301;28;20735;-72
2024/01/20 12:31:58;;;;;;;4.97;1.80;;;2.40;99.90;;;;;;5054682;28;20577;-73
2024/01/20 12:34:26;;;;;;;5.00;1.77;;;2.20;99.90;;;;;;5053160;28;20208;-73
2024/01/20 12:36:54;;;;;;;3.57;1.20;;;2.30;99.90;;;;;;5053510;28;20244;-73
2024/01/20 12:39:21;;;;;;;4.43;1.80;;;2.40;99.90;;;;;;5054657;28;20570;-73
2024/01/20 12:41:49;;;;;;;4.80;2.03;;;2.50;99.90;;;;;;5054882;28;20204;-72
2024/01/20 12:44:17;;;;;;;5.67;1.83;;;2.50;99.90;;;;;;5054930;28;20210;-72
2024/01/20 12:46:44;;;;;;;3.40;1.43;;;2.50;99.90;;;;;;5054929;28;20318;-71
2024/01/20 12:49:11;;;;;;;6.50;1.70;;;2.50;99.90;;;;;;5054730;28;20239;-72
2024/01/20 12:51:40;;;;;;;3.80;1.77;;;2.40;99.90;;;;;;5054649;28;20291;-72
2024/01/20 12:54:08;;;;;;;2.73;1.33;;;2.50;99.90;;;;;;5054878;28;20204;-72
2024/01/20 12:56:36;;;;;;;4.47;1.53;;;2.50;99.90;;;;;;5054742;28;20230;-72
2024/01/20 12:59:03;;;;;;;5.67;2.07;;;2.60;99.90;;;;;;5054637;28;20567;-72
2024/01/20 13:01:29;;;;;;;7.83;1.80;;;2.70;99.90;;;;;;5054314;28;20667;-72
2024/01/20 13:03:56;;;;;;;4.00;1.67;;;2.80;99.90;;;;;;5054719;28;20296;-72
2024/01/20 13:06:23;;;;;;;4.37;2.00;;;2.80;99.90;;;;;;5054378;28;20577;-72
2024/01/20 13:08:51;;;;;;;3.73;1.50;;;2.80;99.90;;;;;;5051488;28;20224;-73
2024/01/20 13:11:18;;;;;;;4.13;1.80;;;2.70;99.90;;;;;;5052707;28;20206;-73
2024/01/20 13:13:47;;;;;;;6.23;3.37;;;2.80;99.90;;;;;;5054303;28;20230;-73
2024/01/20 13:16:14;;;;;;;4.77;2.33;;;2.90;99.90;;;;;;5054477;28;20250;-73
2024/01/20 13:18:41;;;;;;;3.37;1.57;;;2.80;99.90;;;;;;5054146;28;20211;-72
2024/01/20 13:21:09;;;;;;;3.87;1.70;;;2.70;99.90;;;;;;5053522;28;20698;-72
2024/01/20 13:23:36;;;;;;;3.13;1.73;;;2.80;99.90;;;;;;5053844;28;20315;-72
2024/01/20 13:26:04;;;;;;;3.93;1.40;;;2.90;99.90;;;;;;5054402;28;20200;-73
2024/01/20 13:28:33;;;;;;;2.60;1.30;;;3.00;99.90;;;;;;5053885;28;20223;-71
2024/01/20 13:30:59;;;;;;;5.80;1.47;;;3.00;99.90;;;;;;5032937;28;20209;-72
2024/01/20 13:33:26;;;;;;;3.93;1.43;;;2.90;99.90;;;;;;5034234;28;20256;-72
2024/01/20 13:35:53;;;;;;;2.87;1.73;;;3.00;99.90;;;;;;5053143;28;20210;-71
2024/01/20 13:38:20;;;;;;;3.33;1.80;;;3.10;99.90;;;;;;5054137;28;20212;-71
2024/01/20 13:40:47;;;;;;;7.07;1.60;;;3.20;99.90;;;;;;5053809;28;20207;-71
2024/01/20 13:43:15;;;;;;;2.63;1.43;;;3.20;99.90;;;;;;5053900;28;20234;-71
2024/01/20 13:45:42;;;;;;;4.33;1.70;;;3.10;99.90;;;;;;5054049;28;20561;-70
2024/01/20 13:48:09;;;;;;;4.47;1.83;;;3.20;99.90;;;;;;5053342;28;20235;-70
2024/01/20 13:50:36;;;;;;;4.07;1.47;;;3.30;99.90;;;;;;5053521;28;20230;-69
2024/01/20 13:53:03;;;;;;;5.90;2.07;;;3.40;99.90;;;;;;5053890;28;20232;-70
2024/01/20 13:55:30;;;;;;;5.37;1.90;;;3.50;99.90;;;;;;5053720;28;20200;-70
2024/01/20 13:57:56;;;;;;;6.30;1.90;;;3.50;99.90;;;;;;5053955;28;20562;-70
2024/01/20 14:00:25;;;;;;;7.80;2.13;;;3.70;99.90;;;;;;5053311;28;20214;-70
2024/01/20 14:02:51;;;;;;;3.90;2.00;;;3.60;99.90;;;;;;5053069;28;20238;-70
2024/01/20 14:05:18;;;;;;;3.83;1.77;;;3.80;99.90;;;;;;5052895;28;20204;-69
